Consulta los datos en tiempo real de la estación municipal de Seva
| Hora UTC | 18:30 |
|---|---|
| Temperatura | 14.4 ºC |
| Suelo 15 cm | 14.7 ºC |
| Humedad | 68.1 % |
| Presión | 1013.6 hPa |
| Pluja | 0.0 mm |
| Velocidad viento | 5.5 km/h |
| Dirección viento | S |
| Radiación solar | 36.8 W/m² |
| Temperatura (ºC) | Humedad (%) | Presión (hPa) | Velocidad viento (km/h) | Precipitación (mm) | Radiación solar (W/m²) | ||||||||||||||
|---|---|---|---|---|---|---|---|---|---|---|---|---|---|---|---|---|---|---|---|
| Hora UTC | Aire | Suelo 15 cm | Humedad | Presión | Vel. | Dir. | Vel. Max | Dir. | Intent. máx 5 min. | Rad. Sol. | |||||||||
| 00:05 | 7.4 | 5.8 | 98.5 | 1012.9 | 5.0 | SE | 5.0 | SE | 0.0 | 0.1 | |||||||||
| 00:10 | 7.4 | 6.0 | 98.6 | 1012.9 | 6.3 | ESE | 8.8 | ESE | 0.0 | 0.1 | |||||||||
| 00:15 | 7.8 | 6.2 | 98.9 | 1012.9 | 7.7 | SE | 11.3 | SE | 0.0 | 0.0 | |||||||||
| 00:20 | 7.9 | 6.4 | 98.5 | 1012.9 | 7.2 | SE | 11.6 | SE | 0.0 | 0.0 | |||||||||
| 00:25 | 7.8 | 6.3 | 98.0 | 1012.8 | 4.9 | SE | 9.2 | SE | 0.0 | 0.1 | |||||||||
| 00:30 | 7.8 | 6.2 | 98.1 | 1012.8 | 4.6 | SE | 7.4 | ESE | 0.0 | 0.0 | |||||||||
| 00:35 | 7.8 | 6.2 | 98.3 | 1012.8 | 4.2 | SSW | 8.5 | WSW | 0.0 | 0.1 | |||||||||
| 00:40 | 8.2 | 6.4 | 98.3 | 1012.8 | 5.4 | SSE | 11.6 | SE | 0.0 | 0.0 | |||||||||
| 00:45 | 8.2 | 6.6 | 97.2 | 1012.8 | 3.8 | SSE | 6.0 | SE | 0.0 | 0.1 | |||||||||
| 00:50 | 8.2 | 6.5 | 96.6 | 1012.7 | 4.3 | ESE | 13.4 | ESE | 0.0 | 0.0 | |||||||||
| 00:55 | 8.3 | 6.5 | 95.1 | 1012.7 | 2.2 | E | 6.0 | E | 0.0 | 0.1 | |||||||||
| 01:00 | 8.1 | 6.3 | 94.8 | 1012.7 | 2.1 | S | 10.6 | SW | 0.0 | 0.1 | |||||||||
| 01:05 | 8.4 | 6.3 | 94.0 | 1012.6 | 3.0 | W | 12.0 | WSW | 0.0 | 0.1 | |||||||||
| 01:10 | 8.3 | 6.2 | 93.2 | 1012.7 | 1.2 | NNE | 7.1 | NNE | 0.0 | 0.1 | |||||||||
| 01:15 | 8.1 | 6.0 | 94.2 | 1012.7 | 4.0 | E | 9.2 | ESE | 0.0 | 0.1 | |||||||||
| 01:20 | 8.0 | 6.0 | 95.1 | 1012.6 | 5.2 | E | 9.2 | ESE | 0.0 | 0.1 | |||||||||
| 01:25 | 7.9 | 5.9 | 95.2 | 1012.6 | 4.8 | SE | 10.6 | ESE | 0.0 | 0.1 | |||||||||
| 01:30 | 7.7 | 5.8 | 95.4 | 1012.6 | 2.3 | SE | 5.6 | ESE | 0.0 | 0.1 | |||||||||
| 01:35 | 7.6 | 5.6 | 95.9 | 1012.6 | 2.3 | SSE | 5.3 | SSE | 0.0 | 0.1 | |||||||||
| 01:40 | 7.4 | 5.5 | 96.3 | 1012.6 | 5.2 | ESE | 7.8 | ESE | 0.0 | 0.0 | |||||||||
| 01:45 | 7.3 | 5.5 | 96.8 | 1012.5 | 3.5 | SE | 4.6 | ESE | 0.0 | 0.1 | |||||||||
| 01:50 | 7.2 | 5.5 | 97.1 | 1012.6 | 3.1 | SE | 5.3 | SE | 0.0 | 0.1 | |||||||||
| 01:55 | 7.5 | 5.6 | 97.8 | 1012.5 | 5.3 | SSW | 10.2 | SSW | 0.0 | 0.1 | |||||||||
| 02:00 | 7.5 | 5.6 | 97.0 | 1012.5 | 3.1 | S | 8.8 | SSE | 0.0 | 0.1 | |||||||||
| 02:05 | 7.5 | 5.7 | 96.9 | 1012.5 | 4.2 | SW | 8.5 | SSW | 0.0 | 0.0 | |||||||||
| 02:10 | 7.4 | 5.5 | 96.6 | 1012.5 | 2.2 | SSW | 4.2 | SW | 0.0 | 0.1 | |||||||||
| 02:15 | 7.3 | 5.2 | 96.7 | 1012.5 | 4.1 | SSW | 8.8 | SSW | 0.0 | 0.1 | |||||||||
| 02:20 | 7.1 | 5.2 | 96.6 | 1012.5 | 2.0 | WSW | 7.8 | WNW | 0.0 | 0.1 | |||||||||
| 02:25 | 7.0 | 5.0 | 96.7 | 1012.6 | 1.0 | ESE | 3.5 | SE | 0.0 | 0.1 | |||||||||
| 02:30 | 7.0 | 4.9 | 96.9 | 1012.7 | 1.5 | E | 4.2 | E | 0.0 | 0.1 | |||||||||
| 02:35 | 6.9 | 4.9 | 97.3 | 1012.7 | 1.5 | S | 4.9 | SW | 0.0 | 0.1 | |||||||||
| 02:40 | 6.9 | 5.0 | 97.2 | 1012.7 | 0.4 | ENE | 2.5 | ESE | 0.0 | 0.1 | |||||||||
| 02:45 | 6.7 | 4.9 | 97.2 | 1012.7 | 2.8 | E | 5.6 | E | 0.0 | 0.1 | |||||||||
| 02:50 | 6.5 | 4.7 | 97.2 | 1012.7 | 3.8 | E | 6.0 | E | 0.0 | 0.1 | |||||||||
| 02:55 | 6.4 | 4.6 | 97.5 | 1012.6 | 5.4 | ENE | 7.1 | ENE | 0.0 | 0.1 | |||||||||
| 03:00 | 6.2 | 4.5 | 97.6 | 1012.6 | 6.7 | E | 8.1 | E | 0.0 | 0.0 | |||||||||
| 03:05 | 6.2 | 4.4 | 97.8 | 1012.6 | 5.3 | E | 8.1 | E | 0.0 | 0.1 | |||||||||
| 03:10 | 6.2 | 4.4 | 98.0 | 1012.5 | 6.2 | E | 9.2 | E | 0.0 | 0.1 | |||||||||
| 03:15 | 6.0 | 4.3 | 97.8 | 1012.5 | 4.2 | E | 6.4 | E | 0.0 | 0.1 | |||||||||
| 03:20 | 5.9 | 4.2 | 98.0 | 1012.5 | 4.4 | E | 6.0 | E | 0.0 | 0.1 | |||||||||
| 03:25 | 5.9 | 4.1 | 98.2 | 1012.5 | 4.5 | E | 6.4 | ENE | 0.0 | 0.1 | |||||||||
| 03:30 | 5.8 | 4.0 | 98.2 | 1012.5 | 5.5 | E | 7.1 | E | 0.0 | 0.1 | |||||||||
| 03:35 | 5.9 | 4.0 | 98.5 | 1012.5 | 4.7 | ESE | 7.1 | E | 0.0 | 0.0 | |||||||||
| 03:40 | 6.0 | 4.0 | 98.5 | 1012.6 | 3.5 | ESE | 4.6 | ESE | 0.0 | 0.0 | |||||||||
| 03:45 | 5.8 | 3.8 | 98.4 | 1012.6 | 2.5 | E | 3.5 | ESE | 0.0 | 0.0 | |||||||||
| 03:50 | 5.7 | 3.8 | 98.4 | 1012.5 | 3.9 | ESE | 4.9 | ESE | 0.0 | 0.0 | |||||||||
| 03:55 | 5.6 | 3.8 | 98.5 | 1012.6 | 3.3 | ESE | 4.2 | ESE | 0.0 | 0.1 | |||||||||
| 04:00 | 5.6 | 3.7 | 98.7 | 1012.6 | 2.5 | ESE | 3.2 | ESE | 0.0 | 0.1 | |||||||||
| 04:05 | 5.8 | 3.7 | 99.0 | 1012.7 | 3.0 | SSE | 5.3 | SSE | 0.0 | 0.1 | |||||||||
| 04:10 | 6.1 | 3.9 | 99.2 | 1012.7 | 4.2 | SSE | 7.4 | SSE | 0.0 | 0.1 | |||||||||
| 04:15 | 6.2 | 4.1 | 99.1 | 1012.7 | 2.8 | SE | 4.9 | SSE | 0.0 | 0.1 | |||||||||
| 04:20 | 6.1 | 4.1 | 98.9 | 1012.6 | 3.7 | SE | 6.7 | SSE | 0.0 | 0.1 | |||||||||
| 04:25 | 5.8 | 3.9 | 98.7 | 1012.7 | 3.8 | SSE | 6.4 | SE | 0.0 | 0.2 | |||||||||
| 04:30 | 5.8 | 3.8 | 99.0 | 1012.8 | 4.2 | SSE | 6.7 | S | 0.0 | 0.7 | |||||||||
| 04:35 | 6.0 | 3.9 | 99.1 | 1012.9 | 2.7 | SSE | 4.6 | SE | 0.0 | 1.5 | |||||||||
| 04:40 | 6.0 | 3.9 | 99.2 | 1012.9 | 4.0 | SSE | 7.2 | SSE | 0.0 | 2.8 | |||||||||
| 04:45 | 6.0 | 4.0 | 99.2 | 1012.9 | 3.0 | SSE | 4.9 | SE | 0.0 | 4.4 | |||||||||
| 04:50 | 6.0 | 4.1 | 99.2 | 1012.9 | 3.8 | SSE | 6.4 | S | 0.0 | 6.4 | |||||||||
| 04:55 | 6.1 | 4.2 | 99.2 | 1012.9 | 3.9 | S | 6.7 | S | 0.0 | 8.6 | |||||||||
| 05:00 | 6.0 | 4.0 | 99.2 | 1012.9 | 3.9 | SSE | 7.1 | SSE | 0.0 | 11.2 | |||||||||
| 05:05 | 6.1 | 4.0 | 99.3 | 1013.0 | 5.6 | SSE | 8.5 | S | 0.0 | 13.7 | |||||||||
| 05:10 | 6.1 | 4.3 | 99.3 | 1013.0 | 5.2 | SSE | 8.5 | SSE | 0.0 | 16.0 | |||||||||
| 05:15 | 6.2 | 4.5 | 99.1 | 1013.0 | 4.1 | SSE | 7.4 | S | 0.0 | 18.3 | |||||||||
| 05:20 | 6.2 | 4.6 | 99.1 | 1013.1 | 4.1 | S | 8.1 | SSE | 0.0 | 20.6 | |||||||||
| 05:25 | 6.2 | 4.5 | 99.0 | 1013.2 | 2.9 | SSE | 6.4 | SSE | 0.0 | 27.8 | |||||||||
| 05:30 | 6.3 | 4.5 | 99.0 | 1013.2 | 2.2 | SSE | 5.6 | SSW | 0.0 | 96.9 | |||||||||
| 05:35 | 6.4 | 4.6 | 99.0 | 1013.3 | 2.7 | SSW | 6.4 | SSW | 0.0 | 128.7 | |||||||||
| 05:40 | 6.6 | 4.8 | 99.1 | 1013.3 | 3.4 | SSW | 6.7 | SSW | 0.0 | 142.2 | |||||||||
| 05:45 | 6.9 | 4.9 | 98.9 | 1013.4 | 0.2 | SSW | 2.1 | WSW | 0.0 | 156.0 | |||||||||
| 05:50 | 7.7 | 5.0 | 98.6 | 1013.4 | 1.3 | SSW | 4.2 | SW | 0.0 | 169.9 | |||||||||
| 05:55 | 7.9 | 5.9 | 97.3 | 1013.5 | 1.7 | SSW | 3.9 | SSW | 0.0 | 183.0 | |||||||||
| 06:00 | 8.3 | 7.3 | 96.4 | 1013.5 | 1.4 | SSW | 6.0 | S | 0.0 | 196.4 | |||||||||
| 06:05 | 8.8 | 8.1 | 95.7 | 1013.6 | 1.3 | SSW | 4.2 | S | 0.0 | 209.0 | |||||||||
| 06:10 | 8.9 | 8.5 | 94.6 | 1013.6 | 1.3 | S | 3.2 | S | 0.0 | 221.9 | |||||||||
| 06:15 | 9.2 | 9.5 | 93.7 | 1013.6 | 0.7 | SSW | 2.8 | S | 0.0 | 220.1 | |||||||||
| 06:20 | 9.6 | 10.3 | 92.5 | 1013.6 | 0.4 | NW | 2.1 | NW | 0.0 | 250.4 | |||||||||
| 06:25 | 9.6 | 11.2 | 91.0 | 1013.6 | 0.6 | SW | 2.1 | SW | 0.0 | 264.2 | |||||||||
| 06:30 | 9.8 | 11.6 | 89.9 | 1013.7 | 1.5 | SW | 5.3 | SW | 0.0 | 278.2 | |||||||||
| 06:35 | 10.0 | 12.2 | 88.6 | 1013.7 | 2.5 | SW | 5.3 | SSW | 0.0 | 292.1 | |||||||||
| 06:40 | 10.1 | 12.5 | 87.8 | 1013.7 | 2.4 | SW | 6.0 | WNW | 0.0 | 307.5 | |||||||||
| 06:45 | 10.1 | 13.1 | 86.3 | 1013.6 | 3.0 | WNW | 4.6 | WSW | 0.0 | 321.2 | |||||||||
| 06:50 | 10.2 | 13.4 | 86.2 | 1013.6 | 4.9 | WNW | 8.8 | WNW | 0.0 | 335.9 | |||||||||
| 06:55 | 10.2 | 13.8 | 85.8 | 1013.7 | 4.2 | WNW | 7.1 | NNW | 0.0 | 352.9 | |||||||||
| 07:00 | 10.2 | 13.8 | 84.9 | 1013.7 | 4.8 | NW | 8.1 | NW | 0.0 | 379.8 | |||||||||
| 07:05 | 10.4 | 14.3 | 86.3 | 1013.8 | 6.9 | NNW | 11.3 | NNW | 0.0 | 411.0 | |||||||||
| 07:10 | 10.2 | 13.3 | 86.4 | 1013.8 | 8.6 | NNW | 13.4 | NNW | 0.0 | 355.2 | |||||||||
| 07:15 | 10.1 | 13.2 | 86.6 | 1013.8 | 8.1 | N | 12.4 | N | 0.0 | 302.0 | |||||||||
| 07:20 | 10.0 | 12.3 | 86.3 | 1013.8 | 7.3 | N | 10.6 | N | 0.0 | 320.7 | |||||||||
| 07:25 | 10.4 | 13.3 | 86.3 | 1013.8 | 4.4 | NNE | 8.1 | N | 0.0 | 451.0 | |||||||||
| 07:30 | 10.7 | 14.5 | 83.1 | 1013.8 | 4.3 | N | 9.5 | N | 0.0 | 490.8 | |||||||||
| 07:35 | 10.9 | 15.2 | 81.9 | 1013.8 | 4.4 | NNE | 7.1 | NNE | 0.0 | 493.5 | |||||||||
| 07:40 | 11.2 | 15.7 | 81.6 | 1013.9 | 5.6 | N | 9.9 | NNW | 0.0 | 508.8 | |||||||||
| 07:45 | 11.1 | 16.2 | 81.9 | 1013.9 | 3.0 | NNE | 6.4 | NNE | 0.0 | 508.4 | |||||||||
| 07:50 | 11.6 | 16.5 | 80.9 | 1014.0 | 2.8 | NNE | 5.6 | NNE | 0.0 | 513.4 | |||||||||
| 07:55 | 11.6 | 17.0 | 79.2 | 1013.9 | 4.2 | N | 7.8 | N | 0.0 | 524.6 | |||||||||
| 08:00 | 11.5 | 17.1 | 79.6 | 1013.9 | 3.5 | N | 6.7 | N | 0.0 | 539.8 | |||||||||
| 08:05 | 11.6 | 17.3 | 81.0 | 1014.0 | 5.3 | NNW | 8.8 | NNW | 0.0 | 552.8 | |||||||||
| 08:10 | 11.5 | 17.2 | 82.1 | 1014.0 | 6.4 | N | 9.5 | NNW | 0.0 | 568.0 | |||||||||
| 08:15 | 11.4 | 17.3 | 82.1 | 1014.0 | 7.0 | NNW | 12.0 | N | 0.0 | 580.5 | |||||||||
| 08:20 | 11.4 | 17.6 | 82.8 | 1014.0 | 7.1 | NNW | 10.9 | NW | 0.0 | 592.9 | |||||||||
| 08:25 | 11.4 | 17.9 | 82.7 | 1014.1 | 7.1 | NNW | 12.4 | NW | 0.0 | 602.7 | |||||||||
| 08:30 | 11.5 | 18.6 | 82.9 | 1014.1 | 7.7 | NNW | 13.1 | N | 0.0 | 619.0 | |||||||||
| 08:35 | 11.6 | 18.8 | 81.2 | 1014.1 | 6.1 | NNW | 9.2 | NNW | 0.0 | 631.6 | |||||||||
| 08:40 | 11.8 | 19.1 | 80.5 | 1014.1 | 4.4 | N | 9.5 | NW | 0.0 | 644.4 | |||||||||
| 08:45 | 12.1 | 19.3 | 80.6 | 1014.1 | 7.1 | NNW | 10.6 | NNW | 0.0 | 654.8 | |||||||||
| 08:50 | 12.2 | 19.4 | 80.7 | 1014.1 | 7.2 | NNW | 12.4 | NW | 0.0 | 665.9 | |||||||||
| 08:55 | 12.2 | 19.5 | 79.3 | 1014.1 | 5.0 | NNW | 9.2 | N | 0.0 | 678.9 | |||||||||
| 09:00 | 12.6 | 20.1 | 79.7 | 1014.1 | 4.9 | NNW | 9.9 | N | 0.0 | 694.1 | |||||||||
| 09:05 | 12.7 | 20.4 | 78.0 | 1014.2 | 6.3 | WNW | 12.7 | NW | 0.0 | 712.4 | |||||||||
| 09:10 | 12.7 | 21.0 | 77.6 | 1014.2 | 6.0 | W | 12.0 | NW | 0.0 | 727.1 | |||||||||
| 09:15 | 12.9 | 21.3 | 77.0 | 1014.3 | 5.0 | WNW | 9.2 | WNW | 0.0 | 724.9 | |||||||||
| 09:20 | 13.0 | 21.8 | 75.5 | 1014.3 | 2.5 | WNW | 9.2 | NW | 0.0 | 733.6 | |||||||||
| 09:25 | 13.3 | 22.1 | 76.2 | 1014.3 | 5.2 | WNW | 10.9 | WNW | 0.0 | 747.7 | |||||||||
| 09:30 | 13.4 | 21.7 | 75.3 | 1014.3 | 3.0 | WNW | 6.4 | NNW | 0.0 | 762.6 | |||||||||
| 09:35 | 13.5 | 21.4 | 73.3 | 1014.3 | 4.7 | WNW | 9.5 | W | 0.0 | 572.2 | |||||||||
| 09:40 | 13.6 | 20.7 | 74.1 | 1014.3 | 6.7 | NW | 11.6 | WNW | 0.0 | 666.4 | |||||||||
| 09:45 | 13.8 | 21.6 | 73.3 | 1014.3 | 6.7 | WNW | 12.4 | NW | 0.0 | 872.0 | |||||||||
| 09:50 | 14.0 | 21.9 | 69.9 | 1014.3 | 4.0 | NNW | 9.5 | WNW | 0.0 | 467.3 | |||||||||
| 09:55 | 14.0 | 20.7 | 72.8 | 1014.3 | 8.2 | NW | 12.4 | NW | 0.0 | 330.9 | |||||||||
| 10:00 | 13.7 | 19.1 | 73.4 | 1014.3 | 4.6 | NW | 8.5 | WNW | 0.0 | 437.9 | |||||||||
| 10:05 | 13.8 | 18.6 | 72.0 | 1014.3 | 2.9 | WSW | 7.1 | WNW | 0.0 | 327.0 | |||||||||
| 10:10 | 14.4 | 19.2 | 68.3 | 1014.2 | 3.8 | SSW | 9.5 | SSE | 0.0 | 880.0 | |||||||||
| 10:15 | 15.4 | 21.1 | 62.3 | 1014.1 | 3.2 | SE | 7.8 | SSW | 0.0 | 877.0 | |||||||||
| 10:20 | 16.0 | 22.2 | 59.0 | 1014.1 | 5.9 | SSW | 16.2 | SSW | 0.0 | 881.0 | |||||||||
| 10:25 | 15.6 | 21.4 | 55.4 | 1014.1 | 5.5 | S | 20.8 | SSW | 0.0 | 485.0 | |||||||||
| 10:30 | 15.4 | 20.8 | 57.1 | 1014.1 | 8.2 | WSW | 14.8 | WSW | 0.0 | 850.0 | |||||||||
| 10:35 | 15.1 | 21.9 | 55.8 | 1014.0 | 4.8 | NNW | 11.6 | W | 0.0 | 883.0 | |||||||||
| 10:40 | 15.6 | 22.5 | 56.8 | 1014.0 | 7.4 | S | 16.6 | SW | 0.0 | 879.0 | |||||||||
| 10:45 | 15.6 | 22.1 | 53.3 | 1014.1 | 6.0 | SSE | 16.2 | S | 0.0 | 887.0 | |||||||||
| 10:50 | 15.4 | 21.7 | 54.3 | 1014.0 | 8.3 | SSE | 20.5 | S | 0.0 | 880.0 | |||||||||
| 10:55 | 15.7 | 21.4 | 53.2 | 1014.0 | 8.4 | SSE | 15.0 | S | 0.0 | 894.0 | |||||||||
| 11:00 | 16.0 | 21.9 | 53.7 | 1014.0 | 5.2 | S | 14.1 | S | 0.0 | 921.0 | |||||||||
| 11:05 | 16.5 | 22.8 | 51.8 | 1014.0 | 6.2 | SSW | 12.7 | SW | 0.0 | 907.0 | |||||||||
| 11:10 | 16.4 | 23.3 | 51.8 | 1013.9 | 5.2 | W | 10.6 | S | 0.0 | 508.4 | |||||||||
| 11:15 | 15.8 | 21.9 | 53.9 | 1013.9 | 8.2 | WSW | 17.6 | WSW | 0.0 | 683.8 | |||||||||
| 11:20 | 15.8 | 22.9 | 53.7 | 1013.9 | 7.9 | W | 12.4 | W | 0.0 | 817.0 | |||||||||
| 11:25 | 15.9 | 22.1 | 53.9 | 1013.9 | 9.1 | SW | 16.9 | SW | 0.0 | 405.4 | |||||||||
| 11:30 | 15.9 | 21.9 | 52.0 | 1013.8 | 11.5 | WSW | 21.2 | WNW | 0.0 | 921.0 | |||||||||
| 11:35 | 16.1 | 23.0 | 50.5 | 1013.8 | 14.0 | WSW | 24.3 | WSW | 0.0 | 962.0 | |||||||||
| 11:40 | 16.5 | 23.8 | 50.4 | 1013.7 | 12.5 | SW | 24.0 | SW | 0.0 | 963.0 | |||||||||
| 11:45 | 16.7 | 23.8 | 47.8 | 1013.7 | 11.1 | SW | 22.6 | SW | 0.0 | 967.0 | |||||||||
| 11:50 | 17.1 | 24.4 | 47.3 | 1013.7 | 11.7 | SW | 24.7 | SW | 0.0 | 963.0 | |||||||||
| 11:55 | 17.1 | 24.5 | 48.2 | 1013.7 | 10.8 | WSW | 22.9 | WSW | 0.0 | 966.0 | |||||||||
| 12:00 | 17.1 | 24.7 | 49.9 | 1013.6 | 12.1 | WSW | 21.2 | WSW | 0.0 | 956.0 | |||||||||
| 12:05 | 16.3 | 23.2 | 50.4 | 1013.6 | 12.8 | WSW | 24.7 | SW | 0.0 | 248.7 | |||||||||
| 12:10 | 16.1 | 21.3 | 52.0 | 1013.6 | 11.5 | WSW | 21.9 | SW | 0.0 | 745.0 | |||||||||
| 12:15 | 16.6 | 22.4 | 51.3 | 1013.7 | 12.9 | WSW | 22.6 | WSW | 0.0 | 896.0 | |||||||||
| 12:20 | 16.3 | 22.1 | 51.5 | 1013.7 | 8.5 | SW | 17.3 | W | 0.0 | 246.8 | |||||||||
| 12:25 | 16.2 | 20.5 | 53.5 | 1013.7 | 6.1 | SSW | 12.4 | SSW | 0.0 | 256.6 | |||||||||
| 12:30 | 16.1 | 19.6 | 54.9 | 1013.7 | 5.6 | S | 12.4 | S | 0.0 | 273.8 | |||||||||
| 12:35 | 16.1 | 19.3 | 54.6 | 1013.7 | 5.6 | SW | 14.1 | SW | 0.0 | 526.8 | |||||||||
| 12:40 | 17.0 | 21.4 | 54.7 | 1013.6 | 5.5 | S | 13.1 | S | 0.0 | 750.0 | |||||||||
| 12:45 | 16.9 | 21.4 | 54.1 | 1013.6 | 7.7 | SSE | 18.4 | SSE | 0.0 | 443.5 | |||||||||
| 12:50 | 16.6 | 20.8 | 56.3 | 1013.6 | 10.5 | SE | 21.9 | SSE | 0.0 | 907.0 | |||||||||
| 12:55 | 17.1 | 22.3 | 56.0 | 1013.6 | 6.0 | SSE | 14.1 | SSE | 0.0 | 978.0 | |||||||||
| 13:00 | 17.4 | 22.7 | 55.4 | 1013.6 | 6.0 | SSE | 14.5 | SSE | 0.0 | 538.4 | |||||||||
| 13:05 | 17.4 | 22.1 | 53.8 | 1013.6 | 7.7 | S | 15.9 | S | 0.0 | 379.3 | |||||||||
| 13:10 | 16.9 | 21.2 | 55.0 | 1013.6 | 5.3 | SSE | 16.2 | S | 0.0 | 866.0 | |||||||||
| 13:15 | 17.9 | 23.4 | 54.2 | 1013.5 | 7.0 | S | 19.4 | S | 0.0 | 1034.0 | |||||||||
| 13:20 | 18.1 | 24.5 | 51.3 | 1013.5 | 10.0 | S | 20.1 | SSW | 0.0 | 966.0 | |||||||||
| 13:25 | 17.9 | 24.3 | 51.0 | 1013.4 | 8.7 | S | 18.4 | S | 0.0 | 838.0 | |||||||||
| 13:30 | 17.8 | 23.6 | 52.9 | 1013.4 | 8.7 | SSE | 18.7 | SSW | 0.0 | 881.0 | |||||||||
| 13:35 | 17.8 | 23.9 | 52.2 | 1013.4 | 7.0 | SSE | 13.1 | S | 0.0 | 882.0 | |||||||||
| 13:40 | 17.6 | 23.6 | 52.6 | 1013.3 | 6.8 | ESE | 13.4 | SE | 0.0 | 769.2 | |||||||||
| 13:45 | 18.2 | 24.2 | 52.2 | 1013.2 | 9.7 | SW | 20.5 | SW | 0.0 | 989.0 | |||||||||
| 13:50 | 18.7 | 25.8 | 50.6 | 1013.2 | 6.7 | SSW | 21.2 | SSW | 0.0 | 904.0 | |||||||||
| 13:55 | 18.8 | 26.2 | 49.0 | 1013.1 | 7.4 | SSW | 17.6 | S | 0.0 | 904.0 | |||||||||
| 14:00 | 18.6 | 25.6 | 50.2 | 1013.0 | 8.3 | S | 15.2 | SW | 0.0 | 738.9 | |||||||||
| 14:05 | 17.8 | 23.5 | 53.9 | 1013.0 | 11.6 | S | 20.1 | S | 0.0 | 721.7 | |||||||||
| 14:10 | 17.6 | 22.9 | 55.1 | 1013.0 | 11.4 | S | 22.9 | SSW | 0.0 | 673.8 | |||||||||
| 14:15 | 17.1 | 21.7 | 56.1 | 1013.0 | 9.5 | SE | 20.1 | SE | 0.0 | 548.9 | |||||||||
| 14:20 | 17.1 | 21.5 | 56.0 | 1012.9 | 10.3 | SSE | 24.0 | SSE | 0.0 | 691.9 | |||||||||
| 14:25 | 17.2 | 21.7 | 57.0 | 1012.8 | 8.1 | SE | 18.7 | S | 0.0 | 800.0 | |||||||||
| 14:30 | 17.6 | 22.6 | 53.6 | 1012.8 | 8.3 | S | 17.3 | WSW | 0.0 | 672.9 | |||||||||
| 14:35 | 17.6 | 22.7 | 54.1 | 1012.8 | 9.4 | SSE | 21.9 | SSW | 0.0 | 541.0 | |||||||||
| 14:40 | 17.5 | 22.0 | 54.8 | 1012.8 | 10.1 | S | 22.9 | S | 0.0 | 541.6 | |||||||||
| 14:45 | 17.1 | 21.1 | 54.6 | 1012.7 | 7.6 | SE | 17.3 | S | 0.0 | 579.5 | |||||||||
| 14:50 | 17.5 | 21.8 | 54.1 | 1012.7 | 10.3 | SSE | 24.7 | SSE | 0.0 | 656.4 | |||||||||
| 14:55 | 17.1 | 20.9 | 52.6 | 1012.7 | 9.4 | SSE | 17.6 | SSE | 0.0 | 225.9 | |||||||||
| 15:00 | 16.5 | 19.1 | 53.9 | 1012.7 | 7.4 | SSE | 20.8 | SW | 0.0 | 285.1 | |||||||||
| 15:05 | 16.3 | 18.1 | 54.6 | 1012.6 | 7.8 | SSE | 15.9 | S | 0.0 | 172.3 | |||||||||
| 15:10 | 16.3 | 17.8 | 56.3 | 1012.6 | 8.8 | SSE | 19.4 | SSE | 0.0 | 560.5 | |||||||||
| 15:15 | 16.8 | 19.5 | 53.9 | 1012.6 | 8.3 | SSE | 19.8 | SSE | 0.0 | 235.6 | |||||||||
| 15:20 | 16.4 | 18.6 | 55.5 | 1012.6 | 8.5 | SE | 18.7 | E | 0.0 | 366.0 | |||||||||
| 15:25 | 16.5 | 18.9 | 55.5 | 1012.6 | 8.8 | SSE | 18.7 | SE | 0.0 | 333.0 | |||||||||
| 15:30 | 16.4 | 18.4 | 55.0 | 1012.6 | 10.4 | S | 25.4 | SSW | 0.0 | 407.4 | |||||||||
| 15:35 | 16.8 | 19.5 | 54.8 | 1012.6 | 9.3 | SSE | 20.1 | SSE | 0.0 | 455.2 | |||||||||
| 15:40 | 16.9 | 19.9 | 53.2 | 1012.5 | 10.7 | SSE | 25.1 | SSE | 0.0 | 501.4 | |||||||||
| 15:45 | 17.1 | 20.9 | 53.3 | 1012.6 | 10.6 | SSE | 20.5 | SSE | 0.0 | 574.6 | |||||||||
| 15:50 | 17.2 | 21.4 | 52.8 | 1012.6 | 10.0 | S | 21.9 | SSW | 0.0 | 547.1 | |||||||||
| 15:55 | 16.9 | 20.6 | 53.6 | 1012.6 | 9.8 | SE | 19.4 | SE | 0.0 | 201.5 | |||||||||
| 16:00 | 16.5 | 19.4 | 55.0 | 1012.6 | 11.6 | SE | 20.8 | ESE | 0.0 | 520.5 | |||||||||
| 16:05 | 16.7 | 20.3 | 55.3 | 1012.6 | 8.1 | SE | 15.9 | ESE | 0.0 | 490.5 | |||||||||
| 16:10 | 16.8 | 20.7 | 54.1 | 1012.6 | 8.6 | SE | 24.3 | SE | 0.0 | 338.5 | |||||||||
| 16:15 | 16.9 | 20.5 | 54.3 | 1012.7 | 10.6 | S | 20.8 | S | 0.0 | 452.6 | |||||||||
| 16:20 | 17.1 | 21.2 | 54.0 | 1012.7 | 8.8 | S | 23.6 | SSW | 0.0 | 433.4 | |||||||||
| 16:25 | 17.3 | 21.4 | 53.2 | 1012.7 | 6.0 | S | 16.2 | SW | 0.0 | 378.0 | |||||||||
| 16:30 | 17.2 | 21.4 | 53.5 | 1012.8 | 9.9 | S | 18.0 | S | 0.0 | 403.7 | |||||||||
| 16:35 | 17.1 | 21.3 | 53.4 | 1012.8 | 9.9 | S | 21.9 | SSE | 0.0 | 385.1 | |||||||||
| 16:40 | 16.9 | 20.9 | 54.1 | 1012.9 | 9.1 | S | 19.8 | SSW | 0.0 | 368.2 | |||||||||
| 16:45 | 16.8 | 20.2 | 54.3 | 1012.9 | 8.0 | S | 16.9 | S | 0.0 | 354.5 | |||||||||
| 16:50 | 16.7 | 19.8 | 54.3 | 1012.9 | 9.5 | S | 17.6 | ESE | 0.0 | 337.1 | |||||||||
| 16:55 | 16.6 | 19.5 | 55.0 | 1012.9 | 8.3 | SSE | 18.7 | SSE | 0.0 | 320.2 | |||||||||
| 17:00 | 16.4 | 18.2 | 55.2 | 1012.9 | 9.5 | SSE | 20.5 | SSE | 0.0 | 303.7 | |||||||||
| 17:05 | 16.4 | 17.2 | 55.9 | 1012.9 | 7.6 | SE | 19.8 | SSE | 0.0 | 289.9 | |||||||||
| 17:10 | 16.2 | 17.4 | 56.0 | 1012.9 | 8.5 | SSE | 17.6 | S | 0.0 | 270.6 | |||||||||
| 17:15 | 16.2 | 18.1 | 56.1 | 1012.9 | 9.9 | SSE | 17.3 | SSE | 0.0 | 257.1 | |||||||||
| 17:20 | 16.1 | 18.1 | 56.7 | 1013.0 | 9.9 | SSE | 20.1 | SSE | 0.0 | 241.8 | |||||||||
| 17:25 | 16.0 | 18.1 | 57.0 | 1013.0 | 10.4 | SSE | 21.5 | SSE | 0.0 | 225.7 | |||||||||
| 17:30 | 15.9 | 17.9 | 57.9 | 1013.0 | 7.2 | SSE | 16.9 | S | 0.0 | 213.0 | |||||||||
| 17:35 | 15.9 | 17.9 | 58.1 | 1013.0 | 6.6 | SSE | 15.5 | ESE | 0.0 | 196.2 | |||||||||
| 17:40 | 16.1 | 18.2 | 58.0 | 1013.1 | 5.4 | SE | 11.3 | SSE | 0.0 | 182.1 | |||||||||
| 17:45 | 15.9 | 17.9 | 58.9 | 1013.2 | 7.3 | SE | 13.4 | SE | 0.0 | 167.3 | |||||||||
| 17:50 | 15.7 | 17.6 | 60.0 | 1013.2 | 7.2 | SSE | 15.2 | SSE | 0.0 | 150.9 | |||||||||
| 17:55 | 15.8 | 17.5 | 60.1 | 1013.2 | 4.7 | S | 14.8 | SSE | 0.0 | 135.6 | |||||||||
| 18:00 | 15.9 | 17.6 | 60.7 | 1013.2 | 5.0 | S | 14.8 | SSE | 0.0 | 122.5 | |||||||||
| 18:05 | 15.7 | 17.4 | 62.1 | 1013.3 | 7.6 | S | 14.8 | S | 0.0 | 110.7 | |||||||||
| 18:10 | 15.6 | 17.3 | 63.6 | 1013.4 | 5.8 | SSW | 12.0 | SW | 0.0 | 98.0 | |||||||||
| 18:15 | 15.4 | 17.0 | 64.7 | 1013.5 | 4.9 | SSW | 14.8 | SSE | 0.0 | 84.7 | |||||||||
| 18:20 | 15.2 | 16.5 | 65.9 | 1013.6 | 4.7 | SSW | 13.4 | S | 0.0 | 74.0 | |||||||||
| 18:25 | 14.7 | 15.8 | 66.8 | 1013.6 | 6.9 | S | 14.1 | S | 0.0 | 62.3 | |||||||||
| 18:30 | 14.4 | 14.7 | 68.1 | 1013.6 | 5.5 | S | 10.2 | SSE | 0.0 | 36.8 | |||||||||
| Máxima | 18.8 | 26.2 | 99.3 | 1014.3 | 14.0 | WSW | 25.4 | SSW | 0.0 | 1034.0 | |||||||||
| Mínima | 5.6 | 3.7 | 47.3 | 1012.5 | |||||||||||||||
| Total | 0.0 | ||||||||||||||||||